createdAt,value
2019-02-16T00:01:07.007Z,63.17
2019-02-16T00:03:39.540Z,68.87
2019-02-16T00:06:08.445Z,68.60
2019-02-16T00:08:37.366Z,77.20
2019-02-16T00:11:08.823Z,69.17
2019-02-16T00:13:43.036Z,60.37
2019-02-16T00:16:15.717Z,68.00
2019-02-16T00:18:51.474Z,60.67
2019-02-16T00:21:23.668Z,53.57
2019-02-16T00:23:59.598Z,57.13
2019-02-16T00:26:30.740Z,56.30
2019-02-16T00:29:01.604Z,53.63
2019-02-16T00:31:34.567Z,52.63
2019-02-16T00:34:05.616Z,55.37
2019-02-16T00:36:38.336Z,57.57
2019-02-16T00:39:12.303Z,56.90
2019-02-16T00:41:46.568Z,64.90
2019-02-16T00:44:19.178Z,56.07
2019-02-16T00:46:51.267Z,58.93
2019-02-16T00:49:23.025Z,58.90
2019-02-16T00:51:55.399Z,58.93
2019-02-16T00:54:26.851Z,69.17
2019-02-16T00:56:57.997Z,60.70
2019-02-16T00:59:31.292Z,55.53
2019-02-16T01:02:03.503Z,67.27
2019-02-16T01:04:39.472Z,77.50
2019-02-16T01:07:10.257Z,76.47
2019-02-16T01:09:41.381Z,81.63
2019-02-16T01:12:14.389Z,98.40
2019-02-16T01:14:47.069Z,73.30
2019-02-16T01:17:20.234Z,71.90
2019-02-16T01:19:53.046Z,108.93
2019-02-16T01:22:25.415Z,97.70
2019-02-16T01:24:57.794Z,103.90
2019-02-16T01:27:32.929Z,120.97
2019-02-16T01:30:04.894Z,118.63
2019-02-16T01:32:35.991Z,100.90
2019-02-16T01:35:07.903Z,118.33
2019-02-16T01:37:40.686Z,79.50
2019-02-16T01:40:14.186Z,88.53
2019-02-16T01:42:46.557Z,71.73
2019-02-16T01:45:17.396Z,75.53
2019-02-16T01:47:49.666Z,94.17
2019-02-16T01:50:21.836Z,74.03
2019-02-16T01:52:54.619Z,91.50
2019-02-16T01:55:29.961Z,82.93
2019-02-16T01:58:04.487Z,78.53
2019-02-16T02:00:37.901Z,67.63
2019-02-16T02:03:11.368Z,64.17
2019-02-16T02:05:48.534Z,62.47
2019-02-16T02:08:21.534Z,71.03
2019-02-16T02:10:53.422Z,71.77
2019-02-16T02:13:27.974Z,97.63
2019-02-16T02:16:01.454Z,96.00
2019-02-16T02:18:33.759Z,77.93
2019-02-16T02:21:07.525Z,78.60
2019-02-16T02:23:38.976Z,97.07
2019-02-16T02:26:12.586Z,94.70
2019-02-16T02:28:47.719Z,71.90
2019-02-16T02:31:21.636Z,90.30
2019-02-16T02:33:54.707Z,99.97
2019-02-16T02:36:28.241Z,98.57
2019-02-16T02:38:59.667Z,70.00
2019-02-16T02:41:34.807Z,70.70
2019-02-16T02:44:08.715Z,45.10
2019-02-16T02:46:39.554Z,50.23
2019-02-16T02:49:13.773Z,53.77
2019-02-16T02:51:52.366Z,60.97
2019-02-16T02:54:21.170Z,61.70
2019-02-16T02:56:54.577Z,71.10
2019-02-16T02:59:27.261Z,73.93
2019-02-16T03:02:07.928Z,76.10
2019-02-16T03:04:43.210Z,69.23
2019-02-16T03:07:15.076Z,59.83
2019-02-16T03:09:48.736Z,74.33
2019-02-16T03:12:22.336Z,60.40
2019-02-16T03:14:56.632Z,78.53
2019-02-16T03:17:30.615Z,69.03
2019-02-16T03:20:06.324Z,77.37
2019-02-16T03:23:08.276Z,91.13
2019-02-16T03:25:48.237Z,67.37
2019-02-16T03:28:40.943Z,65.63
2019-02-16T03:31:35.077Z,38.93
2019-02-16T03:34:08.378Z,46.83
2019-02-16T03:36:54.257Z,48.17
2019-02-16T03:39:26.937Z,46.13
2019-02-16T03:42:00.548Z,42.17
2019-02-16T03:44:34.144Z,49.87
2019-02-16T03:47:08.974Z,62.07
2019-02-16T03:49:43.514Z,49.40
2019-02-16T03:52:18.947Z,64.07
2019-02-16T03:54:52.767Z,52.90
2019-02-16T03:57:25.966Z,56.03
2019-02-16T03:59:57.727Z,64.00
2019-02-16T04:02:30.097Z,41.60
2019-02-16T04:05:05.114Z,55.90
2019-02-16T04:07:41.790Z,74.03
2019-02-16T04:10:15.401Z,58.47
2019-02-16T04:12:54.218Z,57.37
2019-02-16T04:15:27.206Z,53.43
2019-02-16T04:18:01.111Z,64.23
2019-02-16T04:20:35.943Z,71.87
2019-02-16T04:23:09.955Z,58.57
2019-02-16T04:25:43.693Z,59.33
2019-02-16T04:28:15.625Z,96.53
2019-02-16T04:30:49.227Z,69.13
2019-02-16T04:33:21.908Z,53.53
2019-02-16T04:35:54.179Z,54.97
2019-02-16T04:38:22.962Z,74.27
2019-02-16T04:40:51.651Z,81.47
2019-02-16T04:43:24.644Z,54.03
2019-02-16T04:45:57.949Z,62.07
2019-02-16T04:48:33.088Z,51.37
2019-02-16T04:51:05.144Z,60.30
2019-02-16T04:53:37.826Z,46.40
2019-02-16T04:56:10.771Z,47.60
2019-02-16T04:58:43.802Z,57.23
2019-02-16T05:01:17.097Z,41.30
2019-02-16T05:03:51.924Z,38.90
2019-02-16T05:06:25.171Z,55.90
2019-02-16T05:08:59.132Z,74.23
2019-02-16T05:11:37.038Z,88.07
2019-02-16T05:14:11.444Z,64.67
2019-02-16T05:16:43.627Z,54.30
2019-02-16T05:19:14.830Z,63.60
2019-02-16T05:21:47.982Z,81.23
2019-02-16T05:24:20.339Z,88.13
2019-02-16T05:26:52.519Z,99.80
2019-02-16T05:29:26.313Z,76.73
2019-02-16T05:31:57.460Z,70.57
2019-02-16T05:34:32.249Z,63.47
2019-02-16T05:37:05.279Z,63.67
2019-02-16T05:39:38.880Z,73.57
2019-02-16T05:42:10.027Z,79.23
2019-02-16T05:44:43.762Z,74.00
2019-02-16T05:47:18.396Z,58.87
2019-02-16T05:49:50.232Z,64.47
2019-02-16T05:52:26.587Z,60.17
2019-02-16T05:54:58.727Z,71.80
2019-02-16T05:57:28.601Z,65.80
2019-02-16T06:00:03.092Z,60.73
2019-02-16T06:02:38.844Z,65.20
2019-02-16T06:05:13.301Z,98.63
2019-02-16T06:07:44.850Z,67.40
2019-02-16T06:10:16.662Z,70.67
2019-02-16T06:12:49.260Z,51.23
2019-02-16T06:15:22.557Z,69.87
2019-02-16T06:17:54.784Z,52.93
2019-02-16T06:20:24.847Z,41.77
2019-02-16T06:23:03.801Z,42.00
2019-02-16T06:25:34.562Z,61.10
2019-02-16T06:28:08.726Z,43.23
2019-02-16T06:30:43.648Z,36.10
2019-02-16T06:33:14.515Z,45.53
2019-02-16T06:35:50.768Z,44.30
2019-02-16T06:38:23.135Z,43.43
2019-02-16T06:40:58.890Z,43.17
2019-02-16T06:43:30.426Z,43.93
2019-02-16T06:46:07.119Z,43.40
2019-02-16T06:48:39.695Z,41.43
2019-02-16T06:51:15.143Z,31.07
2019-02-16T06:54:07.483Z,34.67
2019-02-16T06:56:44.772Z,26.83
2019-02-16T06:59:19.605Z,35.73
2019-02-16T07:02:21.558Z,33.37
2019-02-16T07:04:55.691Z,29.80
2019-02-16T07:07:29.788Z,43.07
2019-02-16T07:10:06.437Z,31.53
2019-02-16T07:12:39.565Z,40.53
2019-02-16T07:15:19.010Z,44.20
2019-02-16T07:18:02.744Z,37.03
2019-02-16T07:20:37.269Z,36.50
2019-02-16T07:23:11.998Z,28.03
2019-02-16T07:25:46.522Z,25.10
2019-02-16T07:28:24.117Z,35.50
2019-02-16T07:30:57.729Z,28.97
2019-02-16T07:33:33.066Z,26.30
2019-02-16T07:36:04.925Z,28.50
2019-02-16T07:38:41.609Z,35.83
2019-02-16T07:41:16.143Z,35.53
2019-02-16T07:44:05.087Z,41.67
2019-02-16T07:46:49.254Z,34.17
2019-02-16T07:49:36.313Z,44.97
2019-02-16T07:52:20.968Z,34.77
2019-02-16T07:54:55.205Z,37.27
2019-02-16T07:57:36.852Z,40.00
2019-02-16T08:00:25.991Z,40.67
2019-02-16T08:03:10.655Z,45.60
2019-02-16T08:05:56.859Z,43.07
2019-02-16T08:11:35.212Z,47.77
2019-02-16T08:14:13.291Z,47.90
2019-02-16T08:16:48.468Z,44.47
2019-02-16T08:19:36.531Z,35.90
2019-02-16T08:22:18.370Z,36.03
2019-02-16T08:24:54.125Z,44.27
2019-02-16T08:27:41.091Z,47.27
2019-02-16T08:30:35.035Z,46.00
2019-02-16T08:36:05.128Z,37.60
2019-02-16T08:38:52.811Z,33.47
2019-02-16T08:41:35.469Z,29.63
2019-02-16T08:44:31.639Z,27.50
2019-02-16T08:47:24.292Z,30.37
2019-02-16T08:50:08.029Z,31.20
2019-02-16T08:52:48.163Z,29.40
2019-02-16T08:55:41.345Z,32.20
2019-02-16T08:58:23.243Z,39.93
2019-02-16T09:01:08.826Z,56.47
2019-02-16T09:03:46.188Z,31.60
2019-02-16T09:06:28.933Z,24.80
2019-02-16T09:09:23.155Z,28.50
2019-02-16T09:12:00.783Z,33.80
2019-02-16T09:14:52.484Z,34.77
2019-02-16T09:17:27.109Z,35.07
2019-02-16T09:20:19.335Z,35.03
2019-02-16T09:22:59.991Z,26.07
2019-02-16T09:25:54.176Z,28.90
2019-02-16T09:28:31.171Z,24.90
2019-02-16T09:31:08.470Z,31.47
2019-02-16T09:33:50.327Z,29.00
2019-02-16T09:36:33.455Z,26.53
2019-02-16T09:39:11.415Z,28.37
2019-02-16T09:41:51.555Z,33.63
2019-02-16T09:44:39.452Z,40.47
2019-02-16T09:47:40.411Z,26.90
2019-02-16T09:50:41.647Z,25.03
2019-02-16T09:53:28.164Z,28.83
2019-02-16T09:56:24.190Z,29.90
2019-02-16T09:59:09.274Z,29.17
2019-02-16T10:01:56.942Z,34.17
2019-02-16T10:04:37.977Z,30.27
2019-02-16T10:07:23.254Z,29.60
2019-02-16T10:10:05.340Z,28.23
2019-02-16T10:12:48.557Z,30.30
2019-02-16T10:15:45.262Z,31.77
2019-02-16T10:18:28.297Z,26.80
2019-02-16T10:21:06.754Z,33.30
2019-02-16T10:23:50.207Z,30.17
2019-02-16T10:26:32.298Z,30.20
2019-02-16T10:29:17.523Z,28.63
2019-02-16T10:32:08.212Z,28.07
2019-02-16T10:34:42.832Z,28.37
2019-02-16T10:37:34.723Z,22.63
2019-02-16T10:40:16.620Z,28.23
2019-02-16T10:42:56.810Z,30.27
2019-02-16T10:45:45.943Z,31.00
2019-02-16T10:48:24.376Z,31.73
2019-02-16T10:51:08.508Z,29.87
2019-02-16T10:53:46.798Z,30.87
2019-02-16T10:56:21.550Z,34.03
2019-02-16T10:58:57.041Z,33.10
2019-02-16T11:01:43.809Z,35.17
2019-02-16T11:04:25.383Z,33.63
2019-02-16T11:07:17.270Z,33.67
2019-02-16T11:09:53.800Z,35.80
2019-02-16T11:12:50.431Z,28.93
2019-02-16T11:15:39.407Z,40.67
2019-02-16T11:18:35.442Z,41.17
2019-02-16T11:21:18.565Z,34.80
2019-02-16T11:24:07.216Z,37.43
2019-02-16T11:26:58.943Z,38.83
2019-02-16T11:29:57.430Z,41.00
2019-02-16T11:32:37.487Z,45.67
2019-02-16T11:35:26.139Z,39.80
2019-02-16T11:38:01.586Z,38.83
2019-02-16T11:40:56.850Z,36.80
2019-02-16T11:43:41.979Z,39.23
2019-02-16T11:46:26.633Z,40.73
2019-02-16T11:49:09.799Z,42.33
2019-02-16T11:51:45.213Z,39.37
2019-02-16T11:54:30.142Z,42.80
2019-02-16T11:57:21.806Z,44.20
2019-02-16T12:00:01.349Z,45.87
2019-02-16T12:02:47.081Z,41.17
2019-02-16T12:05:35.268Z,44.63
2019-02-16T12:08:15.414Z,37.90
2019-02-16T12:11:01.074Z,39.23
2019-02-16T12:13:38.192Z,38.10
2019-02-16T12:16:11.396Z,40.27
2019-02-16T12:19:01.680Z,44.03
2019-02-16T12:21:46.693Z,49.80
2019-02-16T12:24:30.329Z,41.57
2019-02-16T12:27:05.327Z,43.03
2019-02-16T12:29:45.074Z,40.60
2019-02-16T12:32:35.570Z,46.97
2019-02-16T12:35:22.385Z,49.97
2019-02-16T12:38:03.047Z,54.33
2019-02-16T12:40:41.242Z,54.70
2019-02-16T12:43:37.289Z,51.17
2019-02-16T12:46:14.885Z,47.07
2019-02-16T12:48:52.205Z,40.60
2019-02-16T12:51:33.148Z,47.17
2019-02-16T12:54:24.925Z,43.23
2019-02-16T12:57:09.848Z,47.20
2019-02-16T12:59:51.128Z,48.33
2019-02-16T13:02:29.481Z,47.97
2019-02-16T13:05:09.126Z,45.27
2019-02-16T13:07:53.787Z,45.80
2019-02-16T13:10:42.111Z,45.40
2019-02-16T13:13:31.146Z,43.17
2019-02-16T13:16:08.346Z,42.53
2019-02-16T13:18:44.779Z,42.10
2019-02-16T13:21:22.028Z,42.87
2019-02-16T13:24:06.069Z,42.70
2019-02-16T13:26:45.797Z,40.80
2019-02-16T13:29:32.995Z,42.10
2019-02-16T13:32:23.066Z,41.07
2019-02-16T13:35:13.608Z,40.40
2019-02-16T13:38:03.489Z,40.23
2019-02-16T13:40:47.134Z,37.00
2019-02-16T13:43:28.357Z,38.57
2019-02-16T13:46:14.403Z,34.67
2019-02-16T13:48:58.144Z,32.27
2019-02-16T13:51:37.317Z,38.07
2019-02-16T13:54:31.013Z,34.67
2019-02-16T13:57:22.705Z,33.20
2019-02-16T14:00:02.629Z,32.83
2019-02-16T14:02:43.375Z,31.80
2019-02-16T14:05:20.621Z,31.03
2019-02-16T14:08:05.981Z,31.47
2019-02-16T14:10:48.321Z,34.57
2019-02-16T14:13:28.578Z,32.57
2019-02-16T14:16:08.216Z,36.00
2019-02-16T14:18:45.873Z,32.33
2019-02-16T14:21:19.680Z,29.63
2019-02-16T14:23:53.096Z,36.83
2019-02-16T14:26:27.780Z,31.30
2019-02-16T14:29:01.716Z,31.47
2019-02-16T14:31:36.239Z,33.87
2019-02-16T14:34:15.074Z,33.13
2019-02-16T14:36:53.890Z,37.73
2019-02-16T14:42:05.702Z,35.67
2019-02-16T14:44:42.380Z,36.80
2019-02-16T14:47:17.209Z,39.23
2019-02-16T14:49:55.725Z,40.70
2019-02-16T14:52:29.328Z,41.90
2019-02-16T14:55:02.931Z,39.03
2019-02-16T14:57:40.834Z,37.17
2019-02-16T15:00:16.280Z,40.93
2019-02-16T15:02:50.807Z,37.00
2019-02-16T15:05:29.630Z,39.00
2019-02-16T15:08:03.747Z,36.50
2019-02-16T15:10:39.386Z,39.07
2019-02-16T15:13:15.667Z,38.63
2019-02-16T15:15:53.254Z,42.87
2019-02-16T15:18:26.549Z,43.40
2019-02-16T15:21:04.186Z,38.60
2019-02-16T15:23:38.508Z,40.17
2019-02-16T15:26:12.797Z,40.87
2019-02-16T15:28:46.817Z,49.47
2019-02-16T15:31:20.429Z,44.23
2019-02-16T15:33:54.513Z,43.70
2019-02-16T15:36:28.117Z,46.70
2019-02-16T15:39:07.299Z,48.97
2019-02-16T15:41:40.235Z,54.10
2019-02-16T15:44:14.760Z,66.70
2019-02-16T15:46:48.362Z,60.23
2019-02-16T15:49:28.733Z,53.13
2019-02-16T15:52:11.246Z,58.17
2019-02-16T15:54:44.080Z,61.60
2019-02-16T15:57:18.450Z,67.57
2019-02-16T15:59:53.931Z,88.00
2019-02-16T16:05:29.674Z,70.37
2019-02-16T16:08:44.125Z,74.00
2019-02-16T16:11:31.129Z,84.03
2019-02-16T16:14:12.227Z,82.33
2019-02-16T16:16:54.431Z,85.63
2019-02-16T16:19:32.064Z,113.47
2019-02-16T16:22:17.726Z,123.20
2019-02-16T16:25:02.777Z,73.10
2019-02-16T16:27:45.051Z,63.27
2019-02-16T16:30:22.267Z,69.60
2019-02-16T16:34:55.381Z,62.83
2019-02-16T16:37:37.453Z,57.60
2019-02-16T16:40:14.564Z,66.40
2019-02-16T16:42:55.731Z,66.30
2019-02-16T16:45:58.330Z,67.60
2019-02-16T16:48:34.103Z,81.20
2019-02-16T16:51:18.755Z,77.67
2019-02-16T16:54:20.485Z,80.63
2019-02-16T17:00:03.441Z,71.57
2019-02-16T17:02:42.917Z,71.43
2019-02-16T17:05:52.694Z,58.47
2019-02-16T17:08:44.480Z,57.23
2019-02-16T17:11:31.272Z,55.33
2019-02-16T17:14:14.103Z,51.70
2019-02-16T17:16:54.453Z,53.67
2019-02-16T17:19:32.612Z,56.70
2019-02-16T17:22:38.830Z,52.87
2019-02-16T17:25:29.031Z,53.33
2019-02-16T17:28:22.771Z,51.63
2019-02-16T17:31:17.435Z,50.77
2019-02-16T17:34:07.121Z,58.30
2019-02-16T17:36:44.774Z,53.60
2019-02-16T17:39:24.925Z,63.43
2019-02-16T17:42:09.127Z,49.63
2019-02-16T17:44:56.790Z,52.53
2019-02-16T17:47:49.971Z,54.43
2019-02-16T17:53:18.839Z,56.97
2019-02-16T17:56:13.527Z,52.07
2019-02-16T17:58:51.692Z,53.97
2019-02-16T18:01:42.834Z,55.33
2019-02-16T18:04:35.524Z,55.03
2019-02-16T18:07:20.728Z,53.23
2019-02-16T18:10:02.838Z,56.30
2019-02-16T18:12:39.607Z,51.27
2019-02-16T18:15:23.257Z,50.53
2019-02-16T18:18:13.817Z,56.07
2019-02-16T18:20:59.736Z,52.53
2019-02-16T18:23:55.200Z,53.03
2019-02-16T18:26:41.412Z,52.43
2019-02-16T18:29:20.481Z,55.60
2019-02-16T18:31:59.141Z,50.60
2019-02-16T18:34:36.148Z,48.93
2019-02-16T18:37:13.882Z,51.17
2019-02-16T18:39:54.246Z,44.73
2019-02-16T18:42:36.140Z,48.07
2019-02-16T18:45:18.356Z,50.87
2019-02-16T18:48:06.703Z,49.47
2019-02-16T18:50:56.725Z,46.83
2019-02-16T18:53:52.916Z,44.30
2019-02-16T18:56:39.498Z,45.53
2019-02-16T18:59:16.126Z,43.37
2019-02-16T19:01:54.933Z,41.07
2019-02-16T19:04:50.072Z,46.17
2019-02-16T19:07:28.713Z,44.77
2019-02-16T19:10:15.663Z,42.17
2019-02-16T19:12:57.529Z,39.73
2019-02-16T19:15:34.238Z,44.17
2019-02-16T19:18:17.998Z,47.13
2019-02-16T19:20:50.348Z,42.23
2019-02-16T19:23:28.572Z,42.83
2019-02-16T19:26:26.338Z,43.70
2019-02-16T19:29:20.933Z,38.83
2019-02-16T19:31:59.451Z,39.77
2019-02-16T19:34:40.725Z,34.20
2019-02-16T19:37:22.934Z,40.10
2019-02-16T19:40:20.492Z,39.83
2019-02-16T19:43:12.721Z,39.27
2019-02-16T19:46:04.254Z,37.77
2019-02-16T19:48:44.621Z,36.10
2019-02-16T19:51:40.347Z,34.90
2019-02-16T19:54:21.394Z,35.70
2019-02-16T19:57:05.370Z,35.57
2019-02-16T19:59:59.390Z,32.30
2019-02-16T20:02:50.077Z,37.03
2019-02-16T20:05:47.017Z,35.90
2019-02-16T20:08:35.970Z,37.73
2019-02-16T20:11:27.684Z,35.57
2019-02-16T20:14:10.500Z,35.37
2019-02-16T20:16:53.934Z,33.13
2019-02-16T20:19:31.479Z,32.07
2019-02-16T20:22:12.672Z,35.90
2019-02-16T20:25:03.281Z,35.30
2019-02-16T20:27:45.856Z,35.97
2019-02-16T20:30:22.478Z,37.87
2019-02-16T20:33:01.981Z,37.33
2019-02-16T20:35:37.090Z,37.47
2019-02-16T20:38:31.170Z,38.23
2019-02-16T20:41:24.117Z,36.63
2019-02-16T20:44:00.296Z,35.90
2019-02-16T20:46:40.986Z,33.70
2019-02-16T20:49:40.498Z,35.07
2019-02-16T20:52:24.926Z,35.47
2019-02-16T21:00:55.147Z,38.90
2019-02-16T21:03:41.753Z,34.93
2019-02-16T21:06:17.653Z,35.57
2019-02-16T21:08:56.866Z,35.07
2019-02-16T21:11:39.175Z,36.93
2019-02-16T21:14:09.286Z,38.73
2019-02-16T21:16:39.444Z,43.20
2019-02-16T21:19:18.596Z,38.00
2019-02-16T21:21:55.498Z,38.97
2019-02-16T21:24:28.162Z,41.73
2019-02-16T21:26:58.278Z,36.37
2019-02-16T21:29:44.767Z,39.03
2019-02-16T21:32:29.990Z,47.13
2019-02-16T21:35:05.689Z,42.27
2019-02-16T21:37:38.600Z,40.67
2019-02-16T21:40:40.109Z,38.87
2019-02-16T21:43:16.010Z,42.80
2019-02-16T21:45:52.244Z,40.17
2019-02-16T21:48:22.567Z,39.90
2019-02-16T21:50:58.472Z,38.77
2019-02-16T21:53:34.124Z,42.63
2019-02-16T21:56:13.200Z,35.63
2019-02-16T21:58:49.236Z,40.83
2019-02-16T22:01:31.214Z,43.23
2019-02-16T22:04:01.388Z,39.83
2019-02-16T22:06:31.492Z,39.80
2019-02-16T22:09:10.643Z,48.03
2019-02-16T22:11:46.627Z,42.70
2019-02-16T22:14:15.355Z,43.00
2019-02-16T22:16:43.826Z,37.33
2019-02-16T22:19:12.354Z,42.07
2019-02-16T22:21:53.182Z,43.03
2019-02-16T22:24:21.640Z,42.47
2019-02-16T22:26:50.181Z,43.53
2019-02-16T22:29:18.893Z,45.07
2019-02-16T22:31:47.353Z,39.00
2019-02-16T22:34:15.910Z,46.17
2019-02-16T22:36:44.383Z,42.17
2019-02-16T22:39:13.111Z,40.13
2019-02-16T22:41:41.681Z,42.50
2019-02-16T22:44:10.170Z,42.30
2019-02-16T22:46:38.715Z,42.33
2019-02-16T22:49:07.183Z,44.37
2019-02-16T22:51:35.717Z,43.93
2019-02-16T22:54:06.362Z,40.10
2019-02-16T22:56:34.536Z,43.17
2019-02-16T22:59:03.075Z,45.50
2019-02-16T23:01:31.963Z,43.90
2019-02-16T23:04:00.451Z,38.37
2019-02-16T23:06:28.906Z,39.67
2019-02-16T23:08:57.354Z,46.07
2019-02-16T23:11:25.823Z,38.53
2019-02-16T23:13:54.283Z,36.17
2019-02-16T23:16:22.863Z,41.00
2019-02-16T23:18:51.323Z,39.43
2019-02-16T23:21:19.777Z,35.40
2019-02-16T23:23:48.243Z,39.77
2019-02-16T23:26:16.765Z,35.73
2019-02-16T23:28:45.230Z,37.03
2019-02-16T23:31:13.758Z,38.60
2019-02-16T23:33:42.256Z,38.33
2019-02-16T23:36:10.797Z,45.50
2019-02-16T23:38:39.327Z,36.83
2019-02-16T23:41:07.781Z,35.97
2019-02-16T23:43:36.242Z,41.47
2019-02-16T23:46:04.765Z,38.23
2019-02-16T23:48:33.590Z,36.50
2019-02-16T23:51:02.050Z,36.43
2019-02-16T23:53:30.526Z,39.50
2019-02-16T23:55:59.053Z,38.73
2019-02-16T23:58:27.513Z,38.73
